sensor_id;sensor_type;location;lat;lon;timestamp;pressure;altitude;pressure_sealevel;temperature;humidity
11017;BME280;54687;50.800;6.772;2022-09-11T00:01:52;60916.84;;;-144.06;67.50
11017;BME280;54687;50.800;6.772;2022-09-11T00:04:19;60870.72;;;-144.06;67.33
11017;BME280;54687;50.800;6.772;2022-09-11T00:06:46;60895.88;;;-144.06;67.69
11017;BME280;54687;50.800;6.772;2022-09-11T00:09:13;60916.84;;;-144.06;67.62
11017;BME280;54687;50.800;6.772;2022-09-11T00:11:41;60923.13;;;-144.06;67.85
11017;BME280;54687;50.800;6.772;2022-09-11T00:14:08;60904.25;;;-144.06;68.04
11017;BME280;54687;50.800;6.772;2022-09-11T00:16:39;60941.97;;;-144.06;68.23
11017;BME280;54687;50.800;6.772;2022-09-11T00:19:09;60939.88;;;-144.06;68.54
11017;BME280;54687;50.800;6.772;2022-09-11T00:21:37;60921.03;;;-144.06;68.94
11017;BME280;54687;50.800;6.772;2022-09-11T00:24:05;60912.63;;;-144.06;69.06
11017;BME280;54687;50.800;6.772;2022-09-11T00:26:34;60912.63;;;-144.06;69.12
11017;BME280;54687;50.800;6.772;2022-09-11T00:29:01;60910.53;;;-144.06;69.60
11017;BME280;54687;50.800;6.772;2022-09-11T00:31:29;60906.34;;;-144.06;70.04
11017;BME280;54687;50.800;6.772;2022-09-11T00:33:57;60958.75;;;-144.06;70.18
11017;BME280;54687;50.800;6.772;2022-09-11T00:36:26;60900.06;;;-144.06;70.31
11017;BME280;54687;50.800;6.772;2022-09-11T00:38:54;60933.59;;;-144.06;70.41
11017;BME280;54687;50.800;6.772;2022-09-11T00:41:27;60929.41;;;-144.06;70.58
11017;BME280;54687;50.800;6.772;2022-09-11T00:43:57;60912.63;;;-144.06;70.82
11017;BME280;54687;50.800;6.772;2022-09-11T00:46:30;60921.03;;;-144.06;70.83
11017;BME280;54687;50.800;6.772;2022-09-11T00:49:02;60891.69;;;-144.06;70.89
11017;BME280;54687;50.800;6.772;2022-09-11T00:51:33;60908.44;;;-144.06;70.82
11017;BME280;54687;50.800;6.772;2022-09-11T00:54:03;60967.13;;;-144.06;70.78
11017;BME280;54687;50.800;6.772;2022-09-11T00:56:32;60925.22;;;-144.06;70.78
11017;BME280;54687;50.800;6.772;2022-09-11T00:59:01;60962.94;;;-144.06;71.07
11017;BME280;54687;50.800;6.772;2022-09-11T01:01:28;60902.16;;;-144.06;71.10
11017;BME280;54687;50.800;6.772;2022-09-11T01:03:55;60906.34;;;-144.06;71.60
11017;BME280;54687;50.800;6.772;2022-09-11T01:06:24;60916.84;;;-144.06;71.22
11017;BME280;54687;50.800;6.772;2022-09-11T01:08:51;60933.59;;;-144.06;71.16
11017;BME280;54687;50.800;6.772;2022-09-11T01:11:38;60883.28;;;-144.06;70.92
11017;BME280;54687;50.800;6.772;2022-09-11T01:14:16;60929.41;;;-144.06;70.63
11017;BME280;54687;50.800;6.772;2022-09-11T01:16:52;60927.31;;;-144.06;70.44
11017;BME280;54687;50.800;6.772;2022-09-11T01:19:34;60944.09;;;-144.06;70.14
11017;BME280;54687;50.800;6.772;2022-09-11T01:22:35;60929.41;;;-144.06;69.96
11017;BME280;54687;50.800;6.772;2022-09-11T01:25:19;60893.78;;;-144.06;69.70
11017;BME280;54687;50.800;6.772;2022-09-11T01:27:54;60883.28;;;-144.06;69.70
11017;BME280;54687;50.800;6.772;2022-09-11T01:30:27;60897.97;;;-144.06;69.55
11017;BME280;54687;50.800;6.772;2022-09-11T01:33:01;60910.53;;;-144.06;69.24
11017;BME280;54687;50.800;6.772;2022-09-11T01:35:38;60927.31;;;-144.06;69.06
11017;BME280;54687;50.800;6.772;2022-09-11T01:38:09;60868.63;;;-144.06;69.06
11017;BME280;54687;50.800;6.772;2022-09-11T01:40:44;60912.63;;;-144.06;69.04
11017;BME280;54687;50.800;6.772;2022-09-11T01:43:16;60923.13;;;-144.06;69.28
11017;BME280;54687;50.800;6.772;2022-09-11T01:45:48;60950.38;;;-144.06;69.33
11017;BME280;54687;50.800;6.772;2022-09-11T01:48:20;60908.44;;;-144.06;69.48
11017;BME280;54687;50.800;6.772;2022-09-11T01:50:50;60885.38;;;-144.06;69.45
11017;BME280;54687;50.800;6.772;2022-09-11T01:53:22;60916.84;;;-144.06;69.77
11017;BME280;54687;50.800;6.772;2022-09-11T01:55:55;60954.56;;;-144.06;69.89
11017;BME280;54687;50.800;6.772;2022-09-11T01:58:27;60933.59;;;-144.06;69.95
11017;BME280;54687;50.800;6.772;2022-09-11T02:00:58;60921.03;;;-144.06;69.85
11017;BME280;54687;50.800;6.772;2022-09-11T02:03:31;60916.84;;;-144.06;69.77
11017;BME280;54687;50.800;6.772;2022-09-11T02:06:04;60916.84;;;-144.06;69.45
11017;BME280;54687;50.800;6.772;2022-09-11T02:08:37;60933.59;;;-144.06;69.24
11017;BME280;54687;50.800;6.772;2022-09-11T02:11:10;60925.22;;;-144.06;69.17
11017;BME280;54687;50.800;6.772;2022-09-11T02:13:43;60883.28;;;-144.06;68.89
11017;BME280;54687;50.800;6.772;2022-09-11T02:16:17;60912.63;;;-144.06;68.94
11017;BME280;54687;50.800;6.772;2022-09-11T02:18:52;60906.34;;;-144.06;68.82
11017;BME280;54687;50.800;6.772;2022-09-11T02:21:22;60895.88;;;-144.06;68.88
11017;BME280;54687;50.800;6.772;2022-09-11T02:23:48;60921.03;;;-144.06;68.57
11017;BME280;54687;50.800;6.772;2022-09-11T02:26:16;60897.97;;;-144.06;68.55
11017;BME280;54687;50.800;6.772;2022-09-11T02:28:45;60895.88;;;-144.06;68.51
11017;BME280;54687;50.800;6.772;2022-09-11T02:31:12;60965.03;;;-144.06;68.54
11017;BME280;54687;50.800;6.772;2022-09-11T02:33:39;60895.88;;;-144.06;68.33
11017;BME280;54687;50.800;6.772;2022-09-11T02:36:19;60904.25;;;-144.06;68.19
11017;BME280;54687;50.800;6.772;2022-09-11T02:39:00;60904.25;;;-144.06;68.13
11017;BME280;54687;50.800;6.772;2022-09-11T02:41:37;60950.38;;;-144.06;68.24
11017;BME280;54687;50.800;6.772;2022-09-11T02:44:16;60921.03;;;-144.06;68.22
11017;BME280;54687;50.800;6.772;2022-09-11T02:46:55;61002.78;;;-144.06;68.08
11017;BME280;54687;50.800;6.772;2022-09-11T02:49:40;60900.06;;;-144.06;68.22
11017;BME280;54687;50.800;6.772;2022-09-11T02:52:17;60927.31;;;-144.06;68.11
11017;BME280;54687;50.800;6.772;2022-09-11T02:54:51;60908.44;;;-144.06;67.96
11017;BME280;54687;50.800;6.772;2022-09-11T02:57:26;60927.31;;;-144.06;67.98
11017;BME280;54687;50.800;6.772;2022-09-11T02:59:57;60923.13;;;-144.06;68.01
11017;BME280;54687;50.800;6.772;2022-09-11T03:02:26;60929.41;;;-144.06;67.91
11017;BME280;54687;50.800;6.772;2022-09-11T03:04:53;60887.47;;;-144.06;67.91
11017;BME280;54687;50.800;6.772;2022-09-11T03:07:21;60900.06;;;-144.06;67.84
11017;BME280;54687;50.800;6.772;2022-09-11T03:09:48;60889.59;;;-144.06;67.89
11017;BME280;54687;50.800;6.772;2022-09-11T03:12:16;60891.69;;;-144.06;67.87
11017;BME280;54687;50.800;6.772;2022-09-11T03:14:42;60902.16;;;-144.06;67.97
11017;BME280;54687;50.800;6.772;2022-09-11T03:17:10;60883.28;;;-144.06;67.95
11017;BME280;54687;50.800;6.772;2022-09-11T03:19:37;60908.44;;;-144.06;68.05
11017;BME280;54687;50.800;6.772;2022-09-11T03:22:04;60897.97;;;-144.06;68.03
11017;BME280;54687;50.800;6.772;2022-09-11T03:24:31;60895.88;;;-144.06;68.15
11017;BME280;54687;50.800;6.772;2022-09-11T03:26:58;60904.25;;;-144.06;68.33
11017;BME280;54687;50.800;6.772;2022-09-11T03:29:25;60879.09;;;-144.06;68.05
11017;BME280;54687;50.800;6.772;2022-09-11T03:31:52;60895.88;;;-144.06;68.20
11017;BME280;54687;50.800;6.772;2022-09-11T03:34:20;60904.25;;;-144.06;68.29
11017;BME280;54687;50.800;6.772;2022-09-11T03:36:47;60897.97;;;-144.06;68.23
11017;BME280;54687;50.800;6.772;2022-09-11T03:39:14;60956.66;;;-144.06;68.22
11017;BME280;54687;50.800;6.772;2022-09-11T03:41:41;60849.75;;;-144.06;68.21
11017;BME280;54687;50.800;6.772;2022-09-11T03:44:08;60874.91;;;-144.06;68.33
11017;BME280;54687;50.800;6.772;2022-09-11T03:46:37;60900.06;;;-144.06;68.31
11017;BME280;54687;50.800;6.772;2022-09-11T03:49:03;60935.69;;;-144.06;68.25
11017;BME280;54687;50.800;6.772;2022-09-11T03:51:32;60891.69;;;-144.06;68.19
11017;BME280;54687;50.800;6.772;2022-09-11T03:53:59;60929.41;;;-144.06;68.11
11017;BME280;54687;50.800;6.772;2022-09-11T03:56:26;60954.56;;;-144.06;68.08
11017;BME280;54687;50.800;6.772;2022-09-11T03:58:54;60939.88;;;-144.06;68.08
11017;BME280;54687;50.800;6.772;2022-09-11T04:01:23;60927.31;;;-144.06;68.23
11017;BME280;54687;50.800;6.772;2022-09-11T04:03:49;60904.25;;;-144.06;68.06
11017;BME280;54687;50.800;6.772;2022-09-11T04:06:16;60908.44;;;-144.06;67.94
11017;BME280;54687;50.800;6.772;2022-09-11T04:08:44;60881.19;;;-144.06;68.00
11017;BME280;54687;50.800;6.772;2022-09-11T04:11:11;60908.44;;;-144.06;68.01
11017;BME280;54687;50.800;6.772;2022-09-11T04:13:39;60983.91;;;-144.06;68.02
11017;BME280;54687;50.800;6.772;2022-09-11T04:16:11;60948.28;;;-144.06;68.15
11017;BME280;54687;50.800;6.772;2022-09-11T04:18:39;60895.88;;;-144.06;68.08
11017;BME280;54687;50.800;6.772;2022-09-11T04:21:07;60891.69;;;-144.06;68.08
11017;BME280;54687;50.800;6.772;2022-09-11T04:23:34;60931.50;;;-144.06;68.29
11017;BME280;54687;50.800;6.772;2022-09-11T04:26:08;60891.69;;;-144.06;68.28
11017;BME280;54687;50.800;6.772;2022-09-11T04:28:38;60921.03;;;-144.06;68.04
11017;BME280;54687;50.800;6.772;2022-09-11T04:31:05;60918.94;;;-144.06;68.06
11017;BME280;54687;50.800;6.772;2022-09-11T04:33:33;60933.59;;;-144.06;68.13
11017;BME280;54687;50.800;6.772;2022-09-11T04:36:03;60912.63;;;-144.06;68.26
11017;BME280;54687;50.800;6.772;2022-09-11T04:38:31;60904.25;;;-144.06;68.25
11017;BME280;54687;50.800;6.772;2022-09-11T04:40:59;60933.59;;;-144.06;68.26
11017;BME280;54687;50.800;6.772;2022-09-11T04:43:28;60918.94;;;-144.06;68.07
11017;BME280;54687;50.800;6.772;2022-09-11T04:45:59;60889.59;;;-144.06;68.05
11017;BME280;54687;50.800;6.772;2022-09-11T04:48:26;60891.69;;;-144.06;68.10
11017;BME280;54687;50.800;6.772;2022-09-11T04:51:00;60956.66;;;-144.06;68.18
11017;BME280;54687;50.800;6.772;2022-09-11T04:53:28;60910.53;;;-144.06;68.15
11017;BME280;54687;50.800;6.772;2022-09-11T04:56:03;60904.25;;;-144.06;68.03
11017;BME280;54687;50.800;6.772;2022-09-11T04:58:33;60916.84;;;-144.06;67.99
11017;BME280;54687;50.800;6.772;2022-09-11T05:01:04;60910.53;;;-144.06;67.95
11017;BME280;54687;50.800;6.772;2022-09-11T05:03:31;60904.25;;;-144.06;67.91
11017;BME280;54687;50.800;6.772;2022-09-11T05:05:58;60914.72;;;-144.06;67.76
11017;BME280;54687;50.800;6.772;2022-09-11T05:08:25;60918.94;;;-144.06;67.64
11017;BME280;54687;50.800;6.772;2022-09-11T05:10:51;60937.78;;;-144.06;67.83
11017;BME280;54687;50.800;6.772;2022-09-11T05:13:19;61000.69;;;-144.06;67.77
11017;BME280;54687;50.800;6.772;2022-09-11T05:15:47;60889.59;;;-144.06;67.78
11017;BME280;54687;50.800;6.772;2022-09-11T05:18:14;60941.97;;;-144.06;67.56
11017;BME280;54687;50.800;6.772;2022-09-11T05:20:41;60918.94;;;-144.06;67.64
11017;BME280;54687;50.800;6.772;2022-09-11T05:23:10;60883.28;;;-144.06;67.54
11017;BME280;54687;50.800;6.772;2022-09-11T05:25:37;60923.13;;;-144.06;67.61
11017;BME280;54687;50.800;6.772;2022-09-11T05:28:03;60921.03;;;-144.06;67.54
11017;BME280;54687;50.800;6.772;2022-09-11T05:30:30;60879.09;;;-144.06;67.40
11017;BME280;54687;50.800;6.772;2022-09-11T05:32:58;60923.13;;;-144.06;67.39
11017;BME280;54687;50.800;6.772;2022-09-11T05:35:25;60916.84;;;-144.06;67.39
11017;BME280;54687;50.800;6.772;2022-09-11T05:37:52;60904.25;;;-144.06;67.22
11017;BME280;54687;50.800;6.772;2022-09-11T05:40:18;60895.88;;;-144.06;67.25
11017;BME280;54687;50.800;6.772;2022-09-11T05:42:45;60904.25;;;-144.06;67.32
11017;BME280;54687;50.800;6.772;2022-09-11T05:45:12;60937.78;;;-144.06;67.03
11017;BME280;54687;50.800;6.772;2022-09-11T05:47:39;60902.16;;;-144.06;67.09
11017;BME280;54687;50.800;6.772;2022-09-11T05:50:09;60916.84;;;-144.06;67.09
11017;BME280;54687;50.800;6.772;2022-09-11T05:52:36;60918.94;;;-144.06;66.80
11017;BME280;54687;50.800;6.772;2022-09-11T05:55:03;60900.06;;;-144.06;66.95
11017;BME280;54687;50.800;6.772;2022-09-11T05:57:30;60904.25;;;-144.06;66.78
11017;BME280;54687;50.800;6.772;2022-09-11T05:59:56;60946.19;;;-144.06;66.67
11017;BME280;54687;50.800;6.772;2022-09-11T06:02:25;60849.75;;;-144.06;66.69
11017;BME280;54687;50.800;6.772;2022-09-11T06:04:51;60914.72;;;-144.06;66.63
11017;BME280;54687;50.800;6.772;2022-09-11T06:07:19;60895.88;;;-144.06;66.32
11017;BME280;54687;50.800;6.772;2022-09-11T06:09:46;60897.97;;;-144.06;66.24
11017;BME280;54687;50.800;6.772;2022-09-11T06:12:13;60881.19;;;-144.06;65.92
11017;BME280;54687;50.800;6.772;2022-09-11T06:14:40;60893.78;;;-144.06;65.83
11017;BME280;54687;50.800;6.772;2022-09-11T06:17:07;60897.97;;;-144.06;65.79
11017;BME280;54687;50.800;6.772;2022-09-11T06:19:34;60918.94;;;-144.06;65.61
11017;BME280;54687;50.800;6.772;2022-09-11T06:22:00;60845.56;;;-144.06;65.46
11017;BME280;54687;50.800;6.772;2022-09-11T06:24:28;60887.47;;;-144.06;65.53
11017;BME280;54687;50.800;6.772;2022-09-11T06:26:55;60887.47;;;-144.06;65.58
11017;BME280;54687;50.800;6.772;2022-09-11T06:29:21;60887.47;;;-144.06;65.51
11017;BME280;54687;50.800;6.772;2022-09-11T06:31:48;60904.25;;;-144.06;65.45
11017;BME280;54687;50.800;6.772;2022-09-11T06:34:16;60900.06;;;-144.06;65.48
11017;BME280;54687;50.800;6.772;2022-09-11T06:36:44;60916.84;;;-144.06;65.64
11017;BME280;54687;50.800;6.772;2022-09-11T06:39:12;60921.03;;;-144.06;65.66
11017;BME280;54687;50.800;6.772;2022-09-11T06:41:40;60925.22;;;-144.06;65.65
11017;BME280;54687;50.800;6.772;2022-09-11T06:44:07;60925.22;;;-144.06;65.77
11017;BME280;54687;50.800;6.772;2022-09-11T06:46:35;60923.13;;;-144.06;65.80
11017;BME280;54687;50.800;6.772;2022-09-11T06:49:01;60887.47;;;-144.06;65.70
11017;BME280;54687;50.800;6.772;2022-09-11T06:51:28;60904.25;;;-144.06;65.63
11017;BME280;54687;50.800;6.772;2022-09-11T06:53:56;60946.19;;;-144.06;65.59
11017;BME280;54687;50.800;6.772;2022-09-11T06:56:25;60874.91;;;-144.06;65.71
11017;BME280;54687;50.800;6.772;2022-09-11T06:58:53;60904.25;;;-144.06;65.72
11017;BME280;54687;50.800;6.772;2022-09-11T07:01:21;60908.44;;;-144.06;65.71
11017;BME280;54687;50.800;6.772;2022-09-11T07:03:48;60895.88;;;-144.06;65.58
11017;BME280;54687;50.800;6.772;2022-09-11T07:06:20;60916.84;;;-144.06;65.61
11017;BME280;54687;50.800;6.772;2022-09-11T07:08:53;60910.53;;;-144.06;65.38
11017;BME280;54687;50.800;6.772;2022-09-11T07:11:21;60908.44;;;-144.06;65.14
11017;BME280;54687;50.800;6.772;2022-09-11T07:13:48;60881.19;;;-144.06;64.96
11017;BME280;54687;50.800;6.772;2022-09-11T07:16:16;60931.50;;;-144.06;64.69
11017;BME280;54687;50.800;6.772;2022-09-11T07:18:44;60887.47;;;-144.06;64.47
11017;BME280;54687;50.800;6.772;2022-09-11T07:21:12;60849.75;;;-144.06;63.72
11017;BME280;54687;50.800;6.772;2022-09-11T07:23:40;60853.94;;;-144.06;62.54
11017;BME280;54687;50.800;6.772;2022-09-11T07:26:09;60879.09;;;-144.06;62.24
11017;BME280;54687;50.800;6.772;2022-09-11T07:28:37;60862.34;;;-144.06;62.12
11017;BME280;54687;50.800;6.772;2022-09-11T07:31:05;60820.41;;;-144.06;61.82
11017;BME280;54687;50.800;6.772;2022-09-11T07:33:37;60885.38;;;-144.06;61.25
11017;BME280;54687;50.800;6.772;2022-09-11T07:36:08;60895.88;;;-144.06;60.78
11017;BME280;54687;50.800;6.772;2022-09-11T07:38:36;60851.84;;;-144.06;60.69
11017;BME280;54687;50.800;6.772;2022-09-11T07:41:03;60874.91;;;-144.06;60.73
11017;BME280;54687;50.800;6.772;2022-09-11T07:43:30;60845.56;;;-144.06;60.90
11017;BME280;54687;50.800;6.772;2022-09-11T07:45:56;60862.34;;;-144.06;60.95
11017;BME280;54687;50.800;6.772;2022-09-11T07:48:23;60845.56;;;-144.06;60.72
11017;BME280;54687;50.800;6.772;2022-09-11T07:50:59;60891.69;;;-144.06;60.30
11017;BME280;54687;50.800;6.772;2022-09-11T07:53:27;60828.78;;;-144.06;60.06
11017;BME280;54687;50.800;6.772;2022-09-11T07:55:53;60845.56;;;-144.06;59.70
11017;BME280;54687;50.800;6.772;2022-09-11T07:58:20;60824.59;;;-144.06;59.26
11017;BME280;54687;50.800;6.772;2022-09-11T08:00:47;60807.84;;;-144.06;58.39
11017;BME280;54687;50.800;6.772;2022-09-11T08:03:14;60824.59;;;-144.06;57.90
11017;BME280;54687;50.800;6.772;2022-09-11T08:05:41;60826.69;;;-144.06;57.31
11017;BME280;54687;50.800;6.772;2022-09-11T08:08:09;60837.19;;;-144.06;56.48
11017;BME280;54687;50.800;6.772;2022-09-11T08:10:36;60770.09;;;-144.06;56.09
11017;BME280;54687;50.800;6.772;2022-09-11T08:13:06;60801.53;;;-144.06;56.13
11017;BME280;54687;50.800;6.772;2022-09-11T08:15:33;60784.78;;;-144.06;55.92
11017;BME280;54687;50.800;6.772;2022-09-11T08:17:59;60843.47;;;-144.06;55.87
11017;BME280;54687;50.800;6.772;2022-09-11T08:20:26;60803.66;;;-144.06;54.98
11017;BME280;54687;50.800;6.772;2022-09-11T08:22:53;60807.84;;;-144.06;55.01
11017;BME280;54687;50.800;6.772;2022-09-11T08:25:21;60843.47;;;-144.06;55.11
11017;BME280;54687;50.800;6.772;2022-09-11T08:27:48;60807.84;;;-144.06;54.69
11017;BME280;54687;50.800;6.772;2022-09-11T08:30:15;60793.16;;;-144.06;55.03
11017;BME280;54687;50.800;6.772;2022-09-11T08:32:42;60778.50;;;-144.06;54.62
11017;BME280;54687;50.800;6.772;2022-09-11T08:35:08;60824.59;;;-144.06;54.79
11017;BME280;54687;50.800;6.772;2022-09-11T08:37:35;60799.44;;;-144.06;54.64
11017;BME280;54687;50.800;6.772;2022-09-11T08:40:02;60807.84;;;-144.06;54.68
11017;BME280;54687;50.800;6.772;2022-09-11T08:42:30;60791.06;;;-144.06;54.14
11017;BME280;54687;50.800;6.772;2022-09-11T08:44:58;60812.03;;;-144.06;53.63
11017;BME280;54687;50.800;6.772;2022-09-11T08:47:28;60759.63;;;-144.06;53.54
11017;BME280;54687;50.800;6.772;2022-09-11T08:50:00;60768.00;;;-144.06;52.06
11017;BME280;54687;50.800;6.772;2022-09-11T08:52:30;60759.63;;;-144.06;51.87
11017;BME280;54687;50.800;6.772;2022-09-11T08:54:58;60786.88;;;-144.06;51.68
11017;BME280;54687;50.800;6.772;2022-09-11T08:57:33;60732.38;;;-144.06;52.19
11017;BME280;54687;50.800;6.772;2022-09-11T09:00:11;60728.19;;;-144.06;52.26
11017;BME280;54687;50.800;6.772;2022-09-11T09:03:02;60765.91;;;-144.06;51.48
11017;BME280;54687;50.800;6.772;2022-09-11T09:05:37;60759.63;;;-144.06;51.17
11017;BME280;54687;50.800;6.772;2022-09-11T09:08:19;60765.91;;;-144.06;50.53
11017;BME280;54687;50.800;6.772;2022-09-11T09:10:51;60730.28;;;-144.06;50.77
11017;BME280;54687;50.800;6.772;2022-09-11T09:13:31;60728.19;;;-144.06;50.38
11017;BME280;54687;50.800;6.772;2022-09-11T09:16:07;60772.19;;;-144.06;49.82
11017;BME280;54687;50.800;6.772;2022-09-11T09:18:45;60715.59;;;-144.06;48.81
11017;BME280;54687;50.800;6.772;2022-09-11T09:21:17;60724.00;;;-144.06;49.52
11017;BME280;54687;50.800;6.772;2022-09-11T09:23:52;60732.38;;;-144.06;49.57
11017;BME280;54687;50.800;6.772;2022-09-11T09:26:20;60730.28;;;-144.06;49.16
11017;BME280;54687;50.800;6.772;2022-09-11T09:28:54;60728.19;;;-144.06;49.59
11017;BME280;54687;50.800;6.772;2022-09-11T09:31:28;60765.91;;;-144.06;50.11
11017;BME280;54687;50.800;6.772;2022-09-11T09:33:59;60707.22;;;-144.06;49.88
11017;BME280;54687;50.800;6.772;2022-09-11T09:36:29;60736.56;;;-144.06;50.27
11017;BME280;54687;50.800;6.772;2022-09-11T09:38:57;60742.84;;;-144.06;49.96
11017;BME280;54687;50.800;6.772;2022-09-11T09:41:52;60744.94;;;-144.06;49.50
11017;BME280;54687;50.800;6.772;2022-09-11T09:44:36;60753.34;;;-144.06;49.43
11017;BME280;54687;50.800;6.772;2022-09-11T09:47:12;60707.22;;;-144.06;49.10
11017;BME280;54687;50.800;6.772;2022-09-11T09:49:40;60763.81;;;-144.06;49.21
11017;BME280;54687;50.800;6.772;2022-09-11T09:52:15;60753.34;;;-144.06;48.80
11017;BME280;54687;50.800;6.772;2022-09-11T09:54:43;60717.72;;;-144.06;48.89
11017;BME280;54687;50.800;6.772;2022-09-11T09:57:14;60719.81;;;-144.06;48.89
11017;BME280;54687;50.800;6.772;2022-09-11T09:59:48;60765.91;;;-144.06;48.88
11017;BME280;54687;50.800;6.772;2022-09-11T10:02:36;60753.34;;;-144.06;49.31
11017;BME280;54687;50.800;6.772;2022-09-11T10:05:17;60774.28;;;-144.06;48.75
11017;BME280;54687;50.800;6.772;2022-09-11T10:07:46;60736.56;;;-144.06;48.25
11017;BME280;54687;50.800;6.772;2022-09-11T10:10:21;60772.19;;;-144.06;48.46
11017;BME280;54687;50.800;6.772;2022-09-11T10:12:49;60734.47;;;-144.06;48.64
11017;BME280;54687;50.800;6.772;2022-09-11T10:15:19;60742.84;;;-144.06;47.80
11017;BME280;54687;50.800;6.772;2022-09-11T10:17:50;60736.56;;;-144.06;47.06
11017;BME280;54687;50.800;6.772;2022-09-11T10:20:22;60721.91;;;-144.06;47.57
11017;BME280;54687;50.800;6.772;2022-09-11T10:22:52;60726.09;;;-144.06;47.53
11017;BME280;54687;50.800;6.772;2022-09-11T10:25:20;60713.50;;;-144.06;46.71
11017;BME280;54687;50.800;6.772;2022-09-11T10:27:57;60724.00;;;-144.06;46.84
11017;BME280;54687;50.800;6.772;2022-09-11T10:30:29;60757.53;;;-144.06;47.12
11017;BME280;54687;50.800;6.772;2022-09-11T10:32:59;60696.75;;;-144.06;47.07
11017;BME280;54687;50.800;6.772;2022-09-11T10:35:27;60726.09;;;-144.06;46.29
11017;BME280;54687;50.800;6.772;2022-09-11T10:38:13;60677.88;;;-144.06;46.69
11017;BME280;54687;50.800;6.772;2022-09-11T10:40:53;60707.22;;;-144.06;46.71
11017;BME280;54687;50.800;6.772;2022-09-11T10:43:23;60696.75;;;-144.06;46.93
11017;BME280;54687;50.800;6.772;2022-09-11T10:46:03;60736.56;;;-144.06;46.84
11017;BME280;54687;50.800;6.772;2022-09-11T10:48:30;60713.50;;;-144.06;46.87
11017;BME280;54687;50.800;6.772;2022-09-11T10:51:05;60736.56;;;-144.06;46.80
11017;BME280;54687;50.800;6.772;2022-09-11T10:53:46;60703.03;;;-144.06;46.51
11017;BME280;54687;50.800;6.772;2022-09-11T10:56:14;60709.31;;;-144.06;46.71
11017;BME280;54687;50.800;6.772;2022-09-11T10:58:44;60753.34;;;-144.06;48.00
11017;BME280;54687;50.800;6.772;2022-09-11T11:01:14;60744.94;;;-144.06;47.72
11017;BME280;54687;50.800;6.772;2022-09-11T11:03:41;60738.66;;;-144.06;48.00
11017;BME280;54687;50.800;6.772;2022-09-11T11:06:19;60715.59;;;-144.06;47.83
11017;BME280;54687;50.800;6.772;2022-09-11T11:08:57;60707.22;;;-144.06;47.56
11017;BME280;54687;50.800;6.772;2022-09-11T11:11:38;60713.50;;;-144.06;47.76
11017;BME280;54687;50.800;6.772;2022-09-11T11:14:21;60711.41;;;-144.06;46.75
11017;BME280;54687;50.800;6.772;2022-09-11T11:16:58;60711.41;;;-144.06;46.75
11017;BME280;54687;50.800;6.772;2022-09-11T11:19:48;60690.47;;;-144.06;46.91
11017;BME280;54687;50.800;6.772;2022-09-11T11:22:27;60669.50;;;-144.06;46.58
11017;BME280;54687;50.800;6.772;2022-09-11T11:25:06;60698.84;;;-144.06;46.70
11017;BME280;54687;50.800;6.772;2022-09-11T11:27:57;60734.47;;;-144.06;46.61
11017;BME280;54687;50.800;6.772;2022-09-11T11:30:30;60715.59;;;-144.06;46.67
11017;BME280;54687;50.800;6.772;2022-09-11T11:33:19;60719.81;;;-144.06;47.10
11017;BME280;54687;50.800;6.772;2022-09-11T11:35:59;60728.19;;;-144.06;48.10
11017;BME280;54687;50.800;6.772;2022-09-11T11:38:31;60726.09;;;-144.06;48.70
11017;BME280;54687;50.800;6.772;2022-09-11T11:41:04;60757.53;;;-144.06;49.37
11017;BME280;54687;50.800;6.772;2022-09-11T11:43:38;60780.59;;;-144.06;49.21
11017;BME280;54687;50.800;6.772;2022-09-11T11:46:12;60734.47;;;-144.06;48.88
11017;BME280;54687;50.800;6.772;2022-09-11T11:48:45;60753.34;;;-144.06;48.75
11017;BME280;54687;50.800;6.772;2022-09-11T11:51:17;60757.53;;;-144.06;48.63
11017;BME280;54687;50.800;6.772;2022-09-11T11:53:50;60759.63;;;-144.06;48.63
11017;BME280;54687;50.800;6.772;2022-09-11T11:56:30;60724.00;;;-144.06;47.92
11017;BME280;54687;50.800;6.772;2022-09-11T11:59:03;60738.66;;;-144.06;47.91
11017;BME280;54687;50.800;6.772;2022-09-11T12:01:38;60744.94;;;-144.06;48.51
11017;BME280;54687;50.800;6.772;2022-09-11T12:04:17;60744.94;;;-144.06;47.70
11017;BME280;54687;50.800;6.772;2022-09-11T12:06:49;60747.06;;;-144.06;48.12
11017;BME280;54687;50.800;6.772;2022-09-11T12:09:17;60770.09;;;-144.06;48.33
11017;BME280;54687;50.800;6.772;2022-09-11T12:11:45;60770.09;;;-144.06;48.31
11017;BME280;54687;50.800;6.772;2022-09-11T12:14:24;60757.53;;;-144.06;47.39
11017;BME280;54687;50.800;6.772;2022-09-11T12:16:54;60763.81;;;-144.06;47.65
11017;BME280;54687;50.800;6.772;2022-09-11T12:19:23;60715.59;;;-144.06;47.90
11017;BME280;54687;50.800;6.772;2022-09-11T12:22:05;60728.19;;;-144.06;47.43
11017;BME280;54687;50.800;6.772;2022-09-11T12:24:49;60700.94;;;-144.06;47.38
11017;BME280;54687;50.800;6.772;2022-09-11T12:27:48;60740.75;;;-144.06;47.03
11017;BME280;54687;50.800;6.772;2022-09-11T12:30:22;60747.06;;;-144.06;47.17
11017;BME280;54687;50.800;6.772;2022-09-11T12:32:50;60732.38;;;-144.06;47.44
11017;BME280;54687;50.800;6.772;2022-09-11T12:35:26;60734.47;;;-144.06;47.88
11017;BME280;54687;50.800;6.772;2022-09-11T12:37:57;60719.81;;;-144.06;47.04
11017;BME280;54687;50.800;6.772;2022-09-11T12:40:31;60740.75;;;-144.06;46.60
11017;BME280;54687;50.800;6.772;2022-09-11T12:43:14;60742.84;;;-144.06;45.93
11017;BME280;54687;50.800;6.772;2022-09-11T12:45:42;60744.94;;;-144.06;46.29
11017;BME280;54687;50.800;6.772;2022-09-11T12:48:13;60673.69;;;-144.06;46.12
11017;BME280;54687;50.800;6.772;2022-09-11T12:50:48;60698.84;;;-144.06;45.04
11017;BME280;54687;50.800;6.772;2022-09-11T12:53:19;60703.03;;;-144.06;45.28
11017;BME280;54687;50.800;6.772;2022-09-11T12:55:55;60707.22;;;-144.06;45.82
11017;BME280;54687;50.800;6.772;2022-09-11T12:58:26;60724.00;;;-144.06;46.15
11017;BME280;54687;50.800;6.772;2022-09-11T13:01:05;60677.88;;;-144.06;45.87